メインページ
METAR-TAF:

METAR-TAF

空港 :

レゾリュート, ヌナブト準州, カナダ

緯度: 74-43N, 経度: 094-59W, 海抜: 67m

現時点の気象観測

当レポートは51分前の02:19(UTC)に作成
東/南東の風 6kt、東/北東から南/南東の間で変化する
気温 -26°C
湿度 76%
気圧 1009 hPa
視程: 11.3km
晴天
氷晶

METAR: CYRB 150219Z 12006KT 060V160 7SM IC SKC M26/M29 A2981 RMK IC1 SLP110

時間: 21:10 (03:10 UTC)

予報

当レポートは57分前の02:13(UTC)に作成
予報は15日の 02時(UTC)から 15日の 24時(UTC)まで有効
変向風 3kt
視程: 4.8km
晴天
氷晶
15日の 02時(UTC)から 15日の 12時(UTC)まで一時的に
視程: 1.6km
氷晶
15日の 03時(UTC)から 15日の 05時(UTC)まで徐々に
北/北東の風 15kt
15日の 1200時(UTC)から
北/北東の風 25kt、最大35ktの突風を伴う
視程: 0.8km
高度1500ftの雲は散在している
氷晶, 高い地吹雪
15日の 1900時(UTC)から
北/北東の風 20kt
高度1500ftの雲はほとんどない
氷晶, 高い地吹雪
15日の 19時(UTC)から 15日の 24時(UTC)まで一時的に
視程: 6.4km
晴天
氷晶, 高い地吹雪

TAF: CYRB 150213Z 1502/1524 VRB03KT 3SM IC SKC TEMPO 1502/1512 1SM IC BECMG 1503/1505 02015KT FM151200 03025G35KT 1/2SM IC BLSN SCT015 FM151900 02020KT 11/2SM IC BLSN FEW015 TEMPO 1519/1524 4SM IC BLSN SKC RMK NXT FCST BY 150600Z

4,000以上の空港の気象観測と天気予報(METAR報とTAF報)

利用可能な観測所は地図上に黄色い丸と赤い丸で示す。

丸の上にカーソルを重ねると観測所名を参照できる。

次にクリックすると気象観測と天気予報を参照できる。

マップの切り替え:黒色「×」印の緑ボタンをクリックして拡大、「-」印の緑ボタンをクリックして縮小、緑色の三角印をクリックして隣りの地図に切り替え


METAR-TAF: